sensor_id;sensor_type;location;lat;lon;timestamp;P1;durP1;ratioP1;P2;durP2;ratioP2
23370;SDS011;11858;51.056;3.712;2023-04-25T00:00:18;15.60;;;14.60;;
23370;SDS011;11858;51.056;3.712;2023-04-25T00:02:44;15.57;;;14.68;;
23370;SDS011;11858;51.056;3.712;2023-04-25T00:05:11;14.90;;;14.00;;
23370;SDS011;11858;51.056;3.712;2023-04-25T00:07:39;15.52;;;14.63;;
23370;SDS011;11858;51.056;3.712;2023-04-25T00:10:08;14.75;;;13.90;;
23370;SDS011;11858;51.056;3.712;2023-04-25T00:12:34;15.32;;;14.43;;
23370;SDS011;11858;51.056;3.712;2023-04-25T00:15:00;15.30;;;14.40;;
23370;SDS011;11858;51.056;3.712;2023-04-25T00:17:27;16.23;;;14.35;;
23370;SDS011;11858;51.056;3.712;2023-04-25T00:19:53;14.23;;;13.43;;
23370;SDS011;11858;51.056;3.712;2023-04-25T00:22:18;14.32;;;13.52;;
23370;SDS011;11858;51.056;3.712;2023-04-25T00:24:44;14.48;;;13.68;;
23370;SDS011;11858;51.056;3.712;2023-04-25T00:27:10;14.45;;;13.65;;
23370;SDS011;11858;51.056;3.712;2023-04-25T00:29:35;14.88;;;13.98;;
23370;SDS011;11858;51.056;3.712;2023-04-25T00:32:01;14.98;;;14.07;;
23370;SDS011;11858;51.056;3.712;2023-04-25T00:34:27;15.13;;;14.23;;
23370;SDS011;11858;51.056;3.712;2023-04-25T00:36:53;15.48;;;14.57;;
23370;SDS011;11858;51.056;3.712;2023-04-25T00:39:18;15.60;;;14.60;;
23370;SDS011;11858;51.056;3.712;2023-04-25T00:41:44;15.65;;;14.65;;
23370;SDS011;11858;51.056;3.712;2023-04-25T00:44:10;15.50;;;14.60;;
23370;SDS011;11858;51.056;3.712;2023-04-25T00:46:38;15.57;;;14.68;;
23370;SDS011;11858;51.056;3.712;2023-04-25T00:49:04;16.00;;;15.00;;
23370;SDS011;11858;51.056;3.712;2023-04-25T00:51:30;15.40;;;14.50;;
23370;SDS011;11858;51.056;3.712;2023-04-25T00:53:57;16.27;;;15.27;;
23370;SDS011;11858;51.056;3.712;2023-04-25T00:56:23;15.05;;;14.15;;
23370;SDS011;11858;51.056;3.712;2023-04-25T00:58:50;15.43;;;14.48;;
23370;SDS011;11858;51.056;3.712;2023-04-25T01:01:21;15.60;;;14.70;;
23370;SDS011;11858;51.056;3.712;2023-04-25T01:03:47;15.90;;;14.90;;
23370;SDS011;11858;51.056;3.712;2023-04-25T01:06:15;15.85;;;14.85;;
23370;SDS011;11858;51.056;3.712;2023-04-25T01:08:41;15.10;;;14.20;;
23370;SDS011;11858;51.056;3.712;2023-04-25T01:11:06;14.57;;;13.68;;
23370;SDS011;11858;51.056;3.712;2023-04-25T01:13:32;15.10;;;14.20;;
23370;SDS011;11858;51.056;3.712;2023-04-25T01:15:59;15.10;;;14.20;;
23370;SDS011;11858;51.056;3.712;2023-04-25T01:18:26;15.13;;;14.23;;
23370;SDS011;11858;51.056;3.712;2023-04-25T01:20:51;15.70;;;14.70;;
23370;SDS011;11858;51.056;3.712;2023-04-25T01:23:18;15.95;;;14.63;;
23370;SDS011;11858;51.056;3.712;2023-04-25T01:25:45;15.35;;;14.45;;
23370;SDS011;11858;51.056;3.712;2023-04-25T01:28:12;14.27;;;13.43;;
23370;SDS011;11858;51.056;3.712;2023-04-25T01:30:38;14.30;;;13.45;;
23370;SDS011;11858;51.056;3.712;2023-04-25T01:33:05;15.18;;;13.55;;
23370;SDS011;11858;51.056;3.712;2023-04-25T01:35:32;12.60;;;11.90;;
23370;SDS011;11858;51.056;3.712;2023-04-25T01:37:58;13.00;;;12.30;;
23370;SDS011;11858;51.056;3.712;2023-04-25T01:40:24;13.43;;;12.63;;
23370;SDS011;11858;51.056;3.712;2023-04-25T01:42:50;13.70;;;12.90;;
23370;SDS011;11858;51.056;3.712;2023-04-25T01:45:16;12.60;;;11.90;;
23370;SDS011;11858;51.056;3.712;2023-04-25T01:47:42;13.30;;;12.57;;
23370;SDS011;11858;51.056;3.712;2023-04-25T01:50:11;13.38;;;12.57;;
23370;SDS011;11858;51.056;3.712;2023-04-25T01:52:37;12.93;;;12.13;;
23370;SDS011;11858;51.056;3.712;2023-04-25T01:55:03;12.13;;;11.43;;
23370;SDS011;11858;51.056;3.712;2023-04-25T01:57:31;12.10;;;11.40;;
23370;SDS011;11858;51.056;3.712;2023-04-25T02:00:00;11.90;;;11.30;;
23370;SDS011;11858;51.056;3.712;2023-04-25T02:02:28;11.65;;;11.05;;
23370;SDS011;11858;51.056;3.712;2023-04-25T02:04:53;12.25;;;11.35;;
23370;SDS011;11858;51.056;3.712;2023-04-25T02:07:19;12.68;;;11.85;;
23370;SDS011;11858;51.056;3.712;2023-04-25T02:09:45;10.32;;;9.82;;
23370;SDS011;11858;51.056;3.712;2023-04-25T02:12:11;9.15;;;8.65;;
23370;SDS011;11858;51.056;3.712;2023-04-25T02:14:37;11.25;;;10.50;;
23370;SDS011;11858;51.056;3.712;2023-04-25T02:17:03;10.20;;;9.60;;
23370;SDS011;11858;51.056;3.712;2023-04-25T02:19:28;9.93;;;9.43;;
23370;SDS011;11858;51.056;3.712;2023-04-25T02:21:54;10.93;;;10.32;;
23370;SDS011;11858;51.056;3.712;2023-04-25T02:24:22;10.63;;;10.02;;
23370;SDS011;11858;51.056;3.712;2023-04-25T02:26:47;10.85;;;10.25;;
23370;SDS011;11858;51.056;3.712;2023-04-25T02:29:14;11.10;;;10.50;;
23370;SDS011;11858;51.056;3.712;2023-04-25T02:31:40;10.90;;;10.30;;
23370;SDS011;11858;51.056;3.712;2023-04-25T02:34:06;11.40;;;10.80;;
23370;SDS011;11858;51.056;3.712;2023-04-25T02:36:32;10.95;;;10.35;;
23370;SDS011;11858;51.056;3.712;2023-04-25T02:38:59;12.10;;;11.40;;
23370;SDS011;11858;51.056;3.712;2023-04-25T02:41:25;11.20;;;10.60;;
23370;SDS011;11858;51.056;3.712;2023-04-25T02:43:51;10.88;;;10.27;;
23370;SDS011;11858;51.056;3.712;2023-04-25T02:46:17;11.35;;;10.75;;
23370;SDS011;11858;51.056;3.712;2023-04-25T02:48:43;11.68;;;11.07;;
23370;SDS011;11858;51.056;3.712;2023-04-25T02:51:09;11.93;;;11.25;;
23370;SDS011;11858;51.056;3.712;2023-04-25T02:53:34;11.75;;;11.15;;
23370;SDS011;11858;51.056;3.712;2023-04-25T02:56:00;11.70;;;11.10;;
23370;SDS011;11858;51.056;3.712;2023-04-25T02:58:26;12.43;;;11.73;;
23370;SDS011;11858;51.056;3.712;2023-04-25T03:00:52;11.70;;;11.10;;
23370;SDS011;11858;51.056;3.712;2023-04-25T03:03:18;18.50;;;17.50;;
23370;SDS011;11858;51.056;3.712;2023-04-25T03:05:46;18.75;;;17.75;;
23370;SDS011;11858;51.056;3.712;2023-04-25T03:08:15;22.05;;;20.85;;
23370;SDS011;11858;51.056;3.712;2023-04-25T03:10:42;18.25;;;17.25;;
23370;SDS011;11858;51.056;3.712;2023-04-25T03:13:08;18.85;;;17.85;;
23370;SDS011;11858;51.056;3.712;2023-04-25T03:15:34;19.25;;;18.25;;
23370;SDS011;11858;51.056;3.712;2023-04-25T03:18:00;21.52;;;20.33;;
23370;SDS011;11858;51.056;3.712;2023-04-25T03:20:26;20.52;;;19.42;;
23370;SDS011;11858;51.056;3.712;2023-04-25T03:22:52;21.85;;;20.65;;
23370;SDS011;11858;51.056;3.712;2023-04-25T03:25:18;22.77;;;21.02;;
23370;SDS011;11858;51.056;3.712;2023-04-25T03:27:44;20.67;;;19.58;;
23370;SDS011;11858;51.056;3.712;2023-04-25T03:30:12;16.80;;;15.82;;
23370;SDS011;11858;51.056;3.712;2023-04-25T03:32:38;13.70;;;12.90;;
23370;SDS011;11858;51.056;3.712;2023-04-25T03:35:04;14.82;;;13.82;;
23370;SDS011;11858;51.056;3.712;2023-04-25T03:37:30;14.57;;;13.77;;
23370;SDS011;11858;51.056;3.712;2023-04-25T03:39:56;14.40;;;13.60;;
23370;SDS011;11858;51.056;3.712;2023-04-25T03:42:21;14.00;;;13.20;;
23370;SDS011;11858;51.056;3.712;2023-04-25T03:44:48;14.20;;;13.40;;
23370;SDS011;11858;51.056;3.712;2023-04-25T03:47:14;14.73;;;13.82;;
23370;SDS011;11858;51.056;3.712;2023-04-25T03:49:40;14.05;;;13.25;;
23370;SDS011;11858;51.056;3.712;2023-04-25T03:52:06;14.80;;;13.90;;
23370;SDS011;11858;51.056;3.712;2023-04-25T03:54:32;15.15;;;14.25;;
23370;SDS011;11858;51.056;3.712;2023-04-25T03:56:58;15.00;;;14.10;;
23370;SDS011;11858;51.056;3.712;2023-04-25T03:59:23;15.00;;;14.10;;
23370;SDS011;11858;51.056;3.712;2023-04-25T04:01:51;15.27;;;14.38;;
23370;SDS011;11858;51.056;3.712;2023-04-25T04:04:17;16.17;;;15.18;;
23370;SDS011;11858;51.056;3.712;2023-04-25T04:06:43;16.48;;;15.48;;
23370;SDS011;11858;51.056;3.712;2023-04-25T04:09:09;15.82;;;14.93;;
23370;SDS011;11858;51.056;3.712;2023-04-25T04:11:36;16.42;;;15.43;;
23370;SDS011;11858;51.056;3.712;2023-04-25T04:14:03;15.90;;;15.00;;
23370;SDS011;11858;51.056;3.712;2023-04-25T04:16:30;15.70;;;14.80;;
23370;SDS011;11858;51.056;3.712;2023-04-25T04:18:56;17.65;;;16.45;;
23370;SDS011;11858;51.056;3.712;2023-04-25T04:21:21;16.75;;;15.75;;
23370;SDS011;11858;51.056;3.712;2023-04-25T04:23:47;16.10;;;15.10;;
23370;SDS011;11858;51.056;3.712;2023-04-25T04:26:13;16.55;;;15.55;;
23370;SDS011;11858;51.056;3.712;2023-04-25T04:28:41;16.65;;;15.65;;
23370;SDS011;11858;51.056;3.712;2023-04-25T04:31:07;16.05;;;15.05;;
23370;SDS011;11858;51.056;3.712;2023-04-25T04:33:34;15.52;;;14.63;;
23370;SDS011;11858;51.056;3.712;2023-04-25T04:36:00;16.85;;;15.85;;
23370;SDS011;11858;51.056;3.712;2023-04-25T04:38:25;16.27;;;15.27;;
23370;SDS011;11858;51.056;3.712;2023-04-25T04:40:51;15.48;;;14.57;;
23370;SDS011;11858;51.056;3.712;2023-04-25T04:43:17;15.40;;;14.50;;
23370;SDS011;11858;51.056;3.712;2023-04-25T04:45:43;15.13;;;14.23;;
23370;SDS011;11858;51.056;3.712;2023-04-25T04:48:09;15.70;;;14.80;;
23370;SDS011;11858;51.056;3.712;2023-04-25T04:50:39;15.65;;;14.75;;
23370;SDS011;11858;51.056;3.712;2023-04-25T04:53:05;15.70;;;14.80;;
23370;SDS011;11858;51.056;3.712;2023-04-25T04:55:30;15.48;;;14.57;;
23370;SDS011;11858;51.056;3.712;2023-04-25T04:57:56;15.70;;;14.80;;
23370;SDS011;11858;51.056;3.712;2023-04-25T05:00:22;15.30;;;14.40;;
23370;SDS011;11858;51.056;3.712;2023-04-25T05:02:47;16.70;;;15.70;;
23370;SDS011;11858;51.056;3.712;2023-04-25T05:05:13;14.70;;;13.90;;
23370;SDS011;11858;51.056;3.712;2023-04-25T05:07:39;14.73;;;13.93;;
23370;SDS011;11858;51.056;3.712;2023-04-25T05:10:05;14.68;;;13.88;;
23370;SDS011;11858;51.056;3.712;2023-04-25T05:12:31;15.90;;;15.00;;
23370;SDS011;11858;51.056;3.712;2023-04-25T05:14:57;8.57;;;8.07;;
23370;SDS011;11858;51.056;3.712;2023-04-25T05:17:22;14.35;;;12.95;;
23370;SDS011;11858;51.056;3.712;2023-04-25T05:19:48;14.30;;;13.50;;
23370;SDS011;11858;51.056;3.712;2023-04-25T05:22:14;14.20;;;13.40;;
23370;SDS011;11858;51.056;3.712;2023-04-25T05:24:39;14.18;;;13.38;;
23370;SDS011;11858;51.056;3.712;2023-04-25T05:27:05;15.13;;;14.23;;
23370;SDS011;11858;51.056;3.712;2023-04-25T05:29:31;15.45;;;14.55;;
23370;SDS011;11858;51.056;3.712;2023-04-25T05:31:56;15.68;;;14.77;;
23370;SDS011;11858;51.056;3.712;2023-04-25T05:34:22;15.95;;;15.05;;
23370;SDS011;11858;51.056;3.712;2023-04-25T05:36:48;16.45;;;15.45;;
23370;SDS011;11858;51.056;3.712;2023-04-25T05:39:15;15.52;;;14.63;;
23370;SDS011;11858;51.056;3.712;2023-04-25T05:41:42;16.42;;;15.43;;
23370;SDS011;11858;51.056;3.712;2023-04-25T05:44:08;16.38;;;15.38;;
23370;SDS011;11858;51.056;3.712;2023-04-25T05:46:34;15.90;;;15.00;;
23370;SDS011;11858;51.056;3.712;2023-04-25T05:48:59;16.70;;;15.70;;
23370;SDS011;11858;51.056;3.712;2023-04-25T05:51:26;16.70;;;15.70;;
23370;SDS011;11858;51.056;3.712;2023-04-25T05:53:52;16.13;;;15.20;;
23370;SDS011;11858;51.056;3.712;2023-04-25T05:56:18;16.77;;;15.77;;
23370;SDS011;11858;51.056;3.712;2023-04-25T05:58:43;11.68;;;11.07;;
23370;SDS011;11858;51.056;3.712;2023-04-25T06:01:09;15.68;;;14.77;;
23370;SDS011;11858;51.056;3.712;2023-04-25T06:03:37;16.65;;;15.65;;
23370;SDS011;11858;51.056;3.712;2023-04-25T06:06:03;16.23;;;15.32;;
23370;SDS011;11858;51.056;3.712;2023-04-25T06:08:29;16.92;;;15.93;;
23370;SDS011;11858;51.056;3.712;2023-04-25T06:10:54;17.05;;;16.05;;
23370;SDS011;11858;51.056;3.712;2023-04-25T06:13:21;17.33;;;16.23;;
23370;SDS011;11858;51.056;3.712;2023-04-25T06:15:46;16.90;;;15.90;;
23370;SDS011;11858;51.056;3.712;2023-04-25T06:18:12;17.55;;;16.50;;
23370;SDS011;11858;51.056;3.712;2023-04-25T06:20:37;18.33;;;17.08;;
23370;SDS011;11858;51.056;3.712;2023-04-25T06:23:03;17.55;;;16.50;;
23370;SDS011;11858;51.056;3.712;2023-04-25T06:25:29;17.25;;;16.25;;
23370;SDS011;11858;51.056;3.712;2023-04-25T06:27:55;16.30;;;15.38;;
23370;SDS011;11858;51.056;3.712;2023-04-25T06:30:21;17.42;;;16.42;;
23370;SDS011;11858;51.056;3.712;2023-04-25T06:32:50;16.83;;;15.82;;
23370;SDS011;11858;51.056;3.712;2023-04-25T06:35:18;17.35;;;16.35;;
23370;SDS011;11858;51.056;3.712;2023-04-25T06:37:45;17.27;;;16.27;;
23370;SDS011;11858;51.056;3.712;2023-04-25T06:40:11;17.38;;;16.35;;
23370;SDS011;11858;51.056;3.712;2023-04-25T06:42:37;17.30;;;16.30;;
23370;SDS011;11858;51.056;3.712;2023-04-25T06:45:02;17.48;;;16.48;;
23370;SDS011;11858;51.056;3.712;2023-04-25T06:47:28;17.80;;;16.70;;
23370;SDS011;11858;51.056;3.712;2023-04-25T06:49:54;18.15;;;17.05;;
23370;SDS011;11858;51.056;3.712;2023-04-25T06:52:20;17.73;;;16.63;;
23370;SDS011;11858;51.056;3.712;2023-04-25T06:54:46;18.92;;;17.73;;
23370;SDS011;11858;51.056;3.712;2023-04-25T06:57:12;17.70;;;16.60;;
23370;SDS011;11858;51.056;3.712;2023-04-25T06:59:38;17.30;;;16.30;;
23370;SDS011;11858;51.056;3.712;2023-04-25T07:02:03;17.52;;;16.42;;
23370;SDS011;11858;51.056;3.712;2023-04-25T07:04:30;18.08;;;16.98;;
23370;SDS011;11858;51.056;3.712;2023-04-25T07:06:56;18.08;;;16.92;;
23370;SDS011;11858;51.056;3.712;2023-04-25T07:09:22;17.48;;;16.38;;
23370;SDS011;11858;51.056;3.712;2023-04-25T07:11:48;18.52;;;17.23;;
23370;SDS011;11858;51.056;3.712;2023-04-25T07:14:14;18.30;;;17.20;;
23370;SDS011;11858;51.056;3.712;2023-04-25T07:16:40;17.95;;;16.85;;
23370;SDS011;11858;51.056;3.712;2023-04-25T07:19:05;18.00;;;16.90;;
23370;SDS011;11858;51.056;3.712;2023-04-25T07:21:31;18.50;;;17.30;;
23370;SDS011;11858;51.056;3.712;2023-04-25T07:23:57;18.52;;;17.33;;
23370;SDS011;11858;51.056;3.712;2023-04-25T07:26:23;19.42;;;18.17;;
23370;SDS011;11858;51.056;3.712;2023-04-25T07:28:49;18.33;;;17.17;;
23370;SDS011;11858;51.056;3.712;2023-04-25T07:31:16;17.92;;;16.83;;
23370;SDS011;11858;51.056;3.712;2023-04-25T07:33:43;19.30;;;18.10;;
23370;SDS011;11858;51.056;3.712;2023-04-25T07:36:10;18.92;;;17.73;;
23370;SDS011;11858;51.056;3.712;2023-04-25T07:38:35;19.38;;;18.17;;
23370;SDS011;11858;51.056;3.712;2023-04-25T07:41:01;19.65;;;18.25;;
23370;SDS011;11858;51.056;3.712;2023-04-25T07:43:27;19.48;;;18.27;;
23370;SDS011;11858;51.056;3.712;2023-04-25T07:45:52;20.02;;;18.65;;
23370;SDS011;11858;51.056;3.712;2023-04-25T07:48:18;19.90;;;18.50;;
23370;SDS011;11858;51.056;3.712;2023-04-25T07:50:44;19.30;;;18.10;;
23370;SDS011;11858;51.056;3.712;2023-04-25T07:53:10;20.48;;;19.08;;
23370;SDS011;11858;51.056;3.712;2023-04-25T07:55:36;20.20;;;18.90;;
23370;SDS011;11858;51.056;3.712;2023-04-25T07:58:04;19.75;;;18.45;;
23370;SDS011;11858;51.056;3.712;2023-04-25T08:00:33;20.55;;;18.88;;
23370;SDS011;11858;51.056;3.712;2023-04-25T08:02:59;19.45;;;18.15;;
23370;SDS011;11858;51.056;3.712;2023-04-25T08:05:25;19.98;;;18.58;;
23370;SDS011;11858;51.056;3.712;2023-04-25T08:07:50;18.50;;;17.30;;
23370;SDS011;11858;51.056;3.712;2023-04-25T08:10:16;19.25;;;18.02;;
23370;SDS011;11858;51.056;3.712;2023-04-25T08:12:42;19.55;;;18.25;;
23370;SDS011;11858;51.056;3.712;2023-04-25T08:15:08;19.35;;;18.15;;
23370;SDS011;11858;51.056;3.712;2023-04-25T08:17:34;19.00;;;17.80;;
23370;SDS011;11858;51.056;3.712;2023-04-25T08:20:00;20.08;;;18.77;;
23370;SDS011;11858;51.056;3.712;2023-04-25T08:22:26;20.13;;;18.83;;
23370;SDS011;11858;51.056;3.712;2023-04-25T08:24:53;19.33;;;18.13;;
23370;SDS011;11858;51.056;3.712;2023-04-25T08:27:19;20.00;;;17.88;;
23370;SDS011;11858;51.056;3.712;2023-04-25T08:29:45;19.40;;;18.20;;
23370;SDS011;11858;51.056;3.712;2023-04-25T08:32:11;19.67;;;18.38;;
23370;SDS011;11858;51.056;3.712;2023-04-25T08:34:37;19.08;;;17.88;;
23370;SDS011;11858;51.056;3.712;2023-04-25T08:37:04;19.73;;;18.42;;
23370;SDS011;11858;51.056;3.712;2023-04-25T08:39:30;19.90;;;18.60;;
23370;SDS011;11858;51.056;3.712;2023-04-25T08:41:56;19.63;;;18.35;;
23370;SDS011;11858;51.056;3.712;2023-04-25T08:44:22;19.70;;;18.40;;
23370;SDS011;11858;51.056;3.712;2023-04-25T08:46:48;20.40;;;19.02;;
23370;SDS011;11858;51.056;3.712;2023-04-25T08:49:14;19.38;;;18.10;;
23370;SDS011;11858;51.056;3.712;2023-04-25T08:51:46;20.98;;;19.48;;
23370;SDS011;11858;51.056;3.712;2023-04-25T08:54:12;19.87;;;18.57;;
23370;SDS011;11858;51.056;3.712;2023-04-25T08:56:41;19.42;;;18.13;;
23370;SDS011;11858;51.056;3.712;2023-04-25T08:59:10;19.00;;;17.80;;
23370;SDS011;11858;51.056;3.712;2023-04-25T09:01:39;19.27;;;17.98;;
23370;SDS011;11858;51.056;3.712;2023-04-25T09:04:05;19.77;;;18.48;;
23370;SDS011;11858;51.056;3.712;2023-04-25T09:06:31;20.40;;;19.08;;
23370;SDS011;11858;51.056;3.712;2023-04-25T09:09:01;19.30;;;18.00;;
23370;SDS011;11858;51.056;3.712;2023-04-25T09:11:31;18.80;;;17.60;;
23370;SDS011;11858;51.056;3.712;2023-04-25T09:14:17;17.88;;;16.77;;
23370;SDS011;11858;51.056;3.712;2023-04-25T09:19:22;18.30;;;17.10;;
23370;SDS011;11858;51.056;3.712;2023-04-25T09:21:55;18.70;;;17.50;;
23370;SDS011;11858;51.056;3.712;2023-04-25T09:24:30;19.08;;;17.88;;
23370;SDS011;11858;51.056;3.712;2023-04-25T09:26:56;18.92;;;17.73;;
23370;SDS011;11858;51.056;3.712;2023-04-25T09:29:28;24.05;;;18.33;;
23370;SDS011;11858;51.056;3.712;2023-04-25T09:34:40;18.70;;;17.50;;
23370;SDS011;11858;51.056;3.712;2023-04-25T09:39:47;19.15;;;17.95;;
23370;SDS011;11858;51.056;3.712;2023-04-25T09:42:15;20.05;;;18.60;;
23370;SDS011;11858;51.056;3.712;2023-04-25T09:44:45;19.67;;;18.38;;
23370;SDS011;11858;51.056;3.712;2023-04-25T09:47:12;19.10;;;17.90;;
23370;SDS011;11858;51.056;3.712;2023-04-25T09:49:39;19.65;;;18.35;;
23370;SDS011;11858;51.056;3.712;2023-04-25T09:52:07;19.42;;;18.13;;
23370;SDS011;11858;51.056;3.712;2023-04-25T09:54:33;19.50;;;18.20;;
23370;SDS011;11858;51.056;3.712;2023-04-25T09:56:59;19.02;;;17.83;;
23370;SDS011;11858;51.056;3.712;2023-04-25T09:59:42;19.95;;;18.45;;
23370;SDS011;11858;51.056;3.712;2023-04-25T10:02:17;19.30;;;18.00;;
23370;SDS011;11858;51.056;3.712;2023-04-25T10:04:47;19.08;;;17.88;;
23370;SDS011;11858;51.056;3.712;2023-04-25T10:07:14;19.13;;;17.92;;
23370;SDS011;11858;51.056;3.712;2023-04-25T10:09:41;19.75;;;18.38;;
23370;SDS011;11858;51.056;3.712;2023-04-25T10:12:08;20.30;;;18.90;;
23370;SDS011;11858;51.056;3.712;2023-04-25T10:14:34;19.90;;;18.60;;
23370;SDS011;11858;51.056;3.712;2023-04-25T10:17:00;19.50;;;18.20;;
23370;SDS011;11858;51.056;3.712;2023-04-25T10:19:27;19.50;;;18.20;;
23370;SDS011;11858;51.056;3.712;2023-04-25T10:24:28;19.10;;;17.90;;
23370;SDS011;11858;51.056;3.712;2023-04-25T10:26:54;18.83;;;17.63;;
23370;SDS011;11858;51.056;3.712;2023-04-25T10:29:23;18.90;;;17.70;;
23370;SDS011;11858;51.056;3.712;2023-04-25T10:31:50;19.38;;;18.13;;
23370;SDS011;11858;51.056;3.712;2023-04-25T10:34:16;18.85;;;17.65;;
23370;SDS011;11858;51.056;3.712;2023-04-25T10:36:42;19.75;;;18.45;;
23370;SDS011;11858;51.056;3.712;2023-04-25T10:39:13;18.20;;;17.10;;
23370;SDS011;11858;51.056;3.712;2023-04-25T10:41:58;19.00;;;17.67;;
23370;SDS011;11858;51.056;3.712;2023-04-25T10:44:27;18.05;;;16.95;;
23370;SDS011;11858;51.056;3.712;2023-04-25T10:47:03;18.90;;;17.70;;
23370;SDS011;11858;51.056;3.712;2023-04-25T10:52:10;19.33;;;18.08;;
23370;SDS011;11858;51.056;3.712;2023-04-25T11:00:17;19.05;;;17.85;;
23370;SDS011;11858;51.056;3.712;2023-04-25T11:02:51;19.67;;;18.27;;
23370;SDS011;11858;51.056;3.712;2023-04-25T11:05:36;18.80;;;17.60;;
23370;SDS011;11858;51.056;3.712;2023-04-25T11:08:06;17.98;;;16.88;;
23370;SDS011;11858;51.056;3.712;2023-04-25T11:10:36;19.00;;;17.80;;
23370;SDS011;11858;51.056;3.712;2023-04-25T11:13:04;19.25;;;18.02;;
23370;SDS011;11858;51.056;3.712;2023-04-25T11:15:30;18.02;;;16.92;;
23370;SDS011;11858;51.056;3.712;2023-04-25T11:17:56;19.60;;;18.40;;
23370;SDS011;11858;51.056;3.712;2023-04-25T11:20:22;19.60;;;18.35;;
23370;SDS011;11858;51.056;3.712;2023-04-25T11:22:50;19.17;;;17.98;;
23370;SDS011;11858;51.056;3.712;2023-04-25T11:25:16;19.02;;;17.83;;
23370;SDS011;11858;51.056;3.712;2023-04-25T11:27:49;19.08;;;17.88;;
23370;SDS011;11858;51.056;3.712;2023-04-25T11:30:16;19.27;;;18.08;;
23370;SDS011;11858;51.056;3.712;2023-04-25T11:32:42;18.88;;;17.67;;
23370;SDS011;11858;51.056;3.712;2023-04-25T11:35:09;19.48;;;18.27;;
23370;SDS011;11858;51.056;3.712;2023-04-25T11:37:35;19.65;;;18.35;;
23370;SDS011;11858;51.056;3.712;2023-04-25T11:40:02;21.48;;;20.08;;
23370;SDS011;11858;51.056;3.712;2023-04-25T11:42:31;20.77;;;18.80;;
23370;SDS011;11858;51.056;3.712;2023-04-25T11:44:57;18.38;;;17.27;;
23370;SDS011;11858;51.056;3.712;2023-04-25T11:47:28;18.75;;;17.55;;
23370;SDS011;11858;51.056;3.712;2023-04-25T11:50:00;18.80;;;17.60;;
23370;SDS011;11858;51.056;3.712;2023-04-25T11:52:39;18.58;;;17.48;;
23370;SDS011;11858;51.056;3.712;2023-04-25T11:55:07;18.80;;;17.60;;
23370;SDS011;11858;51.056;3.712;2023-04-25T11:57:34;19.08;;;17.88;;
23370;SDS011;11858;51.056;3.712;2023-04-25T12:00:08;19.48;;;18.27;;
23370;SDS011;11858;51.056;3.712;2023-04-25T12:02:42;19.15;;;17.95;;
23370;SDS011;11858;51.056;3.712;2023-04-25T12:05:08;19.27;;;17.70;;
23370;SDS011;11858;51.056;3.712;2023-04-25T12:07:35;19.30;;;18.10;;
23370;SDS011;11858;51.056;3.712;2023-04-25T12:10:07;19.58;;;18.38;;
23370;SDS011;11858;51.056;3.712;2023-04-25T12:12:35;19.90;;;18.60;;
23370;SDS011;11858;51.056;3.712;2023-04-25T12:15:11;19.30;;;18.00;;
23370;SDS011;11858;51.056;3.712;2023-04-25T12:17:40;19.73;;;18.42;;
23370;SDS011;11858;51.056;3.712;2023-04-25T12:20:07;18.00;;;16.90;;
23370;SDS011;11858;51.056;3.712;2023-04-25T12:22:44;18.58;;;17.38;;
23370;SDS011;11858;51.056;3.712;2023-04-25T12:33:28;18.30;;;17.20;;
23370;SDS011;11858;51.056;3.712;2023-04-25T12:35:56;18.60;;;17.40;;
23370;SDS011;11858;51.056;3.712;2023-04-25T12:40:52;18.73;;;17.52;;
23370;SDS011;11858;51.056;3.712;2023-04-25T12:43:19;18.60;;;17.40;;
23370;SDS011;11858;51.056;3.712;2023-04-25T12:45:48;18.13;;;17.02;;
23370;SDS011;11858;51.056;3.712;2023-04-25T12:48:16;19.40;;;18.20;;
23370;SDS011;11858;51.056;3.712;2023-04-25T12:50:42;19.17;;;17.98;;
23370;SDS011;11858;51.056;3.712;2023-04-25T12:53:08;19.23;;;18.02;;
23370;SDS011;11858;51.056;3.712;2023-04-25T12:55:34;19.48;;;18.27;;
23370;SDS011;11858;51.056;3.712;2023-04-25T12:58:00;18.48;;;17.38;;
23370;SDS011;11858;51.056;3.712;2023-04-25T13:00:26;19.08;;;17.88;;
23370;SDS011;11858;51.056;3.712;2023-04-25T13:02:51;18.50;;;17.30;;
23370;SDS011;11858;51.056;3.712;2023-04-25T13:05:17;18.70;;;17.50;;
23370;SDS011;11858;51.056;3.712;2023-04-25T13:07:43;18.77;;;17.58;;
23370;SDS011;11858;51.056;3.712;2023-04-25T13:10:08;19.38;;;17.80;;
23370;SDS011;11858;51.056;3.712;2023-04-25T13:12:34;20.20;;;18.90;;
23370;SDS011;11858;51.056;3.712;2023-04-25T13:15:00;19.75;;;18.45;;
23370;SDS011;11858;51.056;3.712;2023-04-25T13:17:25;19.05;;;17.75;;
23370;SDS011;11858;51.056;3.712;2023-04-25T13:19:51;19.65;;;18.35;;
23370;SDS011;11858;51.056;3.712;2023-04-25T13:22:16;18.92;;;17.70;;
23370;SDS011;11858;51.056;3.712;2023-04-25T13:24:45;20.27;;;18.40;;
23370;SDS011;11858;51.056;3.712;2023-04-25T13:27:11;19.60;;;18.00;;
23370;SDS011;11858;51.056;3.712;2023-04-25T13:29:37;18.92;;;17.73;;
23370;SDS011;11858;51.056;3.712;2023-04-25T13:32:05;21.70;;;18.00;;
23370;SDS011;11858;51.056;3.712;2023-04-25T13:34:31;18.90;;;17.70;;
23370;SDS011;11858;51.056;3.712;2023-04-25T13:36:57;18.92;;;17.73;;
23370;SDS011;11858;51.056;3.712;2023-04-25T13:39:22;19.17;;;17.98;;
23370;SDS011;11858;51.056;3.712;2023-04-25T13:41:48;19.23;;;18.02;;
23370;SDS011;11858;51.056;3.712;2023-04-25T13:44:13;19.45;;;18.25;;
23370;SDS011;11858;51.056;3.712;2023-04-25T13:46:39;19.10;;;17.90;;
23370;SDS011;11858;51.056;3.712;2023-04-25T13:49:05;19.25;;;18.05;;
23370;SDS011;11858;51.056;3.712;2023-04-25T13:51:30;18.92;;;17.73;;
23370;SDS011;11858;51.056;3.712;2023-04-25T13:53:56;20.77;;;19.17;;
23370;SDS011;11858;51.056;3.712;2023-04-25T13:56:22;19.30;;;18.10;;
23370;SDS011;11858;51.056;3.712;2023-04-25T13:58:51;18.95;;;17.75;;
23370;SDS011;11858;51.056;3.712;2023-04-25T14:01:18;19.60;;;18.35;;
23370;SDS011;11858;51.056;3.712;2023-04-25T14:03:45;22.60;;;20.83;;
23370;SDS011;11858;51.056;3.712;2023-04-25T14:06:11;20.83;;;19.52;;
23370;SDS011;11858;51.056;3.712;2023-04-25T14:08:37;22.25;;;20.85;;
23370;SDS011;11858;51.056;3.712;2023-04-25T14:11:03;22.63;;;21.10;;
23370;SDS011;11858;51.056;3.712;2023-04-25T14:13:29;22.80;;;21.40;;
23370;SDS011;11858;51.056;3.712;2023-04-25T14:15:55;23.60;;;20.90;;
23370;SDS011;11858;51.056;3.712;2023-04-25T14:18:21;22.40;;;20.90;;
23370;SDS011;11858;51.056;3.712;2023-04-25T14:20:46;22.42;;;20.92;;
23370;SDS011;11858;51.056;3.712;2023-04-25T14:23:12;22.73;;;20.83;;
23370;SDS011;11858;51.056;3.712;2023-04-25T14:25:38;22.05;;;20.75;;
23370;SDS011;11858;51.056;3.712;2023-04-25T14:28:05;21.52;;;20.13;;
23370;SDS011;11858;51.056;3.712;2023-04-25T14:30:31;21.83;;;20.42;;
23370;SDS011;11858;51.056;3.712;2023-04-25T14:32:56;22.00;;;20.60;;
23370;SDS011;11858;51.056;3.712;2023-04-25T14:35:22;22.33;;;20.92;;
23370;SDS011;11858;51.056;3.712;2023-04-25T14:37:48;22.77;;;21.33;;
23370;SDS011;11858;51.056;3.712;2023-04-25T14:40:13;21.02;;;19.73;;
23370;SDS011;11858;51.056;3.712;2023-04-25T14:42:40;20.38;;;19.17;;
23370;SDS011;11858;51.056;3.712;2023-04-25T14:45:06;21.52;;;20.20;;
23370;SDS011;11858;51.056;3.712;2023-04-25T14:47:36;22.27;;;20.88;;